createdAt,value
2023-05-05T00:01:09.256Z,27.62
2023-05-05T00:03:36.808Z,26.58
2023-05-05T00:06:07.080Z,27.37
2023-05-05T00:08:33.959Z,27.18
2023-05-05T00:11:00.734Z,27.26
2023-05-05T00:13:27.242Z,27.42
2023-05-05T00:15:54.542Z,28.09
2023-05-05T00:18:21.387Z,26.81
2023-05-05T00:20:48.065Z,28.07
2023-05-05T00:23:16.109Z,27.34
2023-05-05T00:25:42.740Z,27.89
2023-05-05T00:28:10.265Z,27.23
2023-05-05T00:30:37.453Z,27.18
2023-05-05T00:33:04.387Z,26.84
2023-05-05T00:35:31.118Z,27.42
2023-05-05T00:37:58.530Z,27.86
2023-05-05T00:40:25.363Z,26.43
2023-05-05T00:42:52.123Z,25.98
2023-05-05T00:45:19.738Z,27.11
2023-05-05T00:47:52.262Z,27.13
2023-05-05T00:50:24.598Z,26.82
2023-05-05T00:52:53.766Z,27.49
2023-05-05T00:55:22.090Z,26.97
2023-05-05T00:57:49.303Z,26.27
2023-05-05T01:00:16.725Z,26.44
2023-05-05T01:02:44.194Z,26.11
2023-05-05T01:05:13.172Z,26.47
2023-05-05T01:07:53.425Z,25.75
2023-05-05T01:10:46.579Z,25.76
2023-05-05T01:13:22.631Z,26.19
2023-05-05T01:16:04.193Z,26.30
2023-05-05T01:18:37.380Z,25.50
2023-05-05T01:21:15.253Z,25.72
2023-05-05T01:23:54.606Z,25.63
2023-05-05T01:26:34.672Z,24.97
2023-05-05T01:29:20.339Z,25.13
2023-05-05T01:32:15.015Z,25.84
2023-05-05T01:35:00.554Z,25.70
2023-05-05T01:37:32.183Z,25.67
2023-05-05T01:40:04.808Z,26.97
2023-05-05T01:42:34.072Z,25.26
2023-05-05T01:45:05.443Z,25.74
2023-05-05T01:47:32.440Z,25.77
2023-05-05T01:50:00.175Z,26.45
2023-05-05T01:52:27.973Z,26.70
2023-05-05T01:54:55.678Z,26.70
2023-05-05T01:57:26.442Z,26.43
2023-05-05T01:59:53.874Z,26.42
2023-05-05T02:02:22.575Z,26.50
2023-05-05T02:04:51.785Z,26.37
2023-05-05T02:07:20.003Z,26.10
2023-05-05T02:09:47.914Z,26.48
2023-05-05T02:12:16.430Z,25.93
2023-05-05T02:14:44.577Z,26.27
2023-05-05T02:17:13.373Z,26.34
2023-05-05T02:19:44.027Z,26.23
2023-05-05T02:22:12.148Z,26.96
2023-05-05T02:24:39.234Z,27.31
2023-05-05T02:27:07.338Z,26.22
2023-05-05T02:29:57.647Z,25.67
2023-05-05T02:32:34.274Z,25.76
2023-05-05T02:35:09.935Z,26.43
2023-05-05T02:37:43.787Z,25.59
2023-05-05T02:40:15.159Z,25.76
2023-05-05T02:42:46.471Z,25.15
2023-05-05T02:45:19.861Z,25.42
2023-05-05T02:47:48.686Z,25.00
2023-05-05T02:50:15.729Z,25.59
2023-05-05T02:52:49.678Z,26.77
2023-05-05T02:55:19.216Z,27.15
2023-05-05T02:58:03.509Z,26.62
2023-05-05T03:00:47.693Z,26.17
2023-05-05T03:03:25.889Z,26.87
2023-05-05T03:06:00.542Z,26.23
2023-05-05T03:08:31.428Z,26.52
2023-05-05T03:11:07.921Z,27.09
2023-05-05T03:13:40.453Z,26.19
2023-05-05T03:16:08.094Z,26.43
2023-05-05T03:18:37.837Z,26.34
2023-05-05T03:21:08.680Z,26.85
2023-05-05T03:23:39.684Z,26.19
2023-05-05T03:26:11.856Z,26.42
2023-05-05T03:28:42.289Z,26.13
2023-05-05T03:31:18.212Z,25.84
2023-05-05T03:33:49.315Z,26.34
2023-05-05T03:36:15.943Z,27.44
2023-05-05T03:38:42.816Z,26.67
2023-05-05T03:41:09.512Z,27.18
2023-05-05T03:43:36.514Z,26.18
2023-05-05T03:46:03.598Z,26.32
2023-05-05T03:48:30.832Z,26.64
2023-05-05T03:50:57.580Z,27.21
2023-05-05T03:53:26.601Z,27.12
2023-05-05T03:55:54.268Z,27.63
2023-05-05T03:58:20.853Z,26.68
2023-05-05T04:00:48.163Z,26.26
2023-05-05T04:03:16.920Z,26.71
2023-05-05T04:05:43.616Z,26.01
2023-05-05T04:08:10.539Z,25.96
2023-05-05T04:10:37.105Z,26.26
2023-05-05T04:13:04.450Z,26.24
2023-05-05T04:15:32.545Z,26.42
2023-05-05T04:17:59.744Z,26.30
2023-05-05T04:20:26.569Z,25.96
2023-05-05T04:22:54.471Z,25.46
2023-05-05T04:25:22.141Z,25.28
2023-05-05T04:27:49.492Z,25.32
2023-05-05T04:30:17.469Z,25.62
2023-05-05T04:32:45.081Z,26.33
2023-05-05T04:35:11.802Z,26.80
2023-05-05T04:37:38.986Z,26.89
2023-05-05T04:40:06.576Z,27.50
2023-05-05T04:42:35.010Z,26.87
2023-05-05T04:45:02.427Z,27.59
2023-05-05T04:47:30.221Z,27.21
2023-05-05T04:49:56.997Z,27.51
2023-05-05T04:52:23.544Z,27.40
2023-05-05T04:54:51.232Z,27.47
2023-05-05T04:57:17.810Z,27.18
2023-05-05T04:59:44.564Z,27.57
2023-05-05T05:02:11.161Z,27.38
2023-05-05T05:04:37.720Z,27.16
2023-05-05T05:07:04.330Z,27.58
2023-05-05T05:09:31.341Z,27.41
2023-05-05T05:12:02.925Z,27.21
2023-05-05T05:14:30.096Z,26.51
2023-05-05T05:16:56.636Z,27.01
2023-05-05T05:19:24.248Z,26.72
2023-05-05T05:21:51.194Z,26.72
2023-05-05T05:24:17.852Z,27.52
2023-05-05T05:26:44.440Z,28.20
2023-05-05T05:29:11.233Z,28.01
2023-05-05T05:31:39.673Z,27.67
2023-05-05T05:34:06.900Z,28.55
2023-05-05T05:36:33.705Z,29.81
2023-05-05T05:39:00.482Z,30.26
2023-05-05T05:41:27.996Z,29.23
2023-05-05T05:43:54.738Z,29.93
2023-05-05T05:46:21.614Z,30.14
2023-05-05T05:48:48.366Z,30.32
2023-05-05T05:51:14.951Z,30.68
2023-05-05T05:53:41.704Z,33.06
2023-05-05T05:56:09.829Z,33.63
2023-05-05T05:58:36.567Z,30.31
2023-05-05T06:01:04.887Z,29.38
2023-05-05T06:03:31.589Z,30.75
2023-05-05T06:05:59.128Z,32.36
2023-05-05T06:08:26.774Z,32.63
2023-05-05T06:10:54.760Z,35.59
2023-05-05T06:13:21.710Z,36.17
2023-05-05T06:15:50.512Z,36.07
2023-05-05T06:18:17.873Z,36.22
2023-05-05T06:20:44.829Z,36.09
2023-05-05T06:23:14.210Z,35.28
2023-05-05T06:25:46.630Z,35.06
2023-05-05T06:28:13.185Z,34.65
2023-05-05T06:30:39.733Z,33.75
2023-05-05T06:33:06.280Z,31.84
2023-05-05T06:35:33.175Z,30.65
2023-05-05T06:37:59.672Z,29.71
2023-05-05T06:40:26.651Z,29.71
2023-05-05T06:42:53.139Z,30.20
2023-05-05T06:45:25.982Z,30.53
2023-05-05T06:47:52.701Z,29.82
2023-05-05T06:50:19.724Z,30.74
2023-05-05T06:52:46.748Z,32.07
2023-05-05T06:55:13.238Z,31.36
2023-05-05T06:57:40.258Z,31.79
2023-05-05T07:00:11.129Z,32.64
2023-05-05T07:02:38.543Z,33.00
2023-05-05T07:05:05.637Z,30.11
2023-05-05T07:07:32.532Z,30.43
2023-05-05T07:09:59.105Z,29.95
2023-05-05T07:12:25.618Z,31.08
2023-05-05T07:14:52.802Z,31.05
2023-05-05T07:17:19.325Z,32.16
2023-05-05T07:19:45.841Z,32.18
2023-05-05T07:22:12.406Z,31.97
2023-05-05T07:24:38.938Z,32.19
2023-05-05T07:27:06.505Z,32.83
2023-05-05T07:29:33.089Z,33.76
2023-05-05T07:32:00.067Z,32.86
2023-05-05T07:34:27.543Z,33.99
2023-05-05T07:36:56.670Z,34.13
2023-05-05T07:39:23.272Z,33.40
2023-05-05T07:41:49.911Z,32.57
2023-05-05T07:44:16.637Z,34.02
2023-05-05T07:46:43.168Z,33.89
2023-05-05T07:49:09.690Z,32.90
2023-05-05T07:51:36.823Z,32.42
2023-05-05T07:54:03.389Z,32.70
2023-05-05T07:56:30.833Z,32.71
2023-05-05T07:58:57.391Z,33.16
2023-05-05T08:01:23.948Z,34.19
2023-05-05T08:03:50.500Z,33.46
2023-05-05T08:06:22.029Z,34.29
2023-05-05T08:08:49.735Z,34.54
2023-05-05T08:11:17.047Z,34.52
2023-05-05T08:13:44.105Z,34.89
2023-05-05T08:16:10.862Z,35.97
2023-05-05T08:18:38.918Z,36.00
2023-05-05T08:21:06.512Z,35.59
2023-05-05T08:23:33.841Z,35.07
2023-05-05T08:26:00.939Z,35.94
2023-05-05T08:28:27.893Z,36.26
2023-05-05T08:30:54.456Z,34.93
2023-05-05T08:33:21.021Z,33.91
2023-05-05T08:35:49.118Z,34.12
2023-05-05T08:38:15.847Z,33.32
2023-05-05T08:40:43.063Z,33.16
2023-05-05T08:43:09.597Z,33.51
2023-05-05T08:45:37.027Z,33.91
2023-05-05T08:48:05.283Z,33.72
2023-05-05T08:50:32.770Z,34.20
2023-05-05T08:53:15.661Z,33.52
2023-05-05T08:55:53.895Z,31.75
2023-05-05T08:58:22.802Z,33.06
2023-05-05T09:00:50.702Z,33.53
2023-05-05T09:03:18.322Z,33.38
2023-05-05T09:05:44.981Z,33.74
2023-05-05T09:08:11.665Z,33.09
2023-05-05T09:10:42.672Z,32.37
2023-05-05T09:13:09.318Z,33.73
2023-05-05T09:15:36.087Z,32.66
2023-05-05T09:18:03.540Z,32.26
2023-05-05T09:20:35.261Z,31.42
2023-05-05T09:23:14.741Z,31.68
2023-05-05T09:25:46.005Z,31.99
2023-05-05T09:28:15.083Z,31.94
2023-05-05T09:30:43.675Z,32.77
2023-05-05T09:33:10.566Z,32.05
2023-05-05T09:35:54.104Z,31.98
2023-05-05T09:38:22.161Z,32.28
2023-05-05T09:40:54.049Z,31.92
2023-05-05T09:43:23.329Z,32.46
2023-05-05T09:45:50.782Z,33.30
2023-05-05T09:48:31.191Z,33.24
2023-05-05T09:50:58.498Z,33.89
2023-05-05T09:53:26.555Z,33.43
2023-05-05T09:55:56.967Z,34.24
2023-05-05T09:58:28.087Z,35.52
2023-05-05T10:00:56.281Z,34.90
2023-05-05T10:03:23.048Z,33.95
2023-05-05T10:06:00.878Z,34.99
2023-05-05T10:08:30.375Z,34.15
2023-05-05T10:11:01.955Z,34.02
2023-05-05T10:13:28.793Z,33.73
2023-05-05T10:15:57.722Z,34.28
2023-05-05T10:18:26.969Z,34.04
2023-05-05T10:21:04.043Z,33.67
2023-05-05T10:23:39.160Z,33.93
2023-05-05T10:26:07.039Z,34.20
2023-05-05T10:28:41.485Z,33.42
2023-05-05T10:31:25.006Z,33.57
2023-05-05T10:33:59.139Z,33.66
2023-05-05T10:36:27.852Z,32.62
2023-05-05T10:38:59.796Z,33.01
2023-05-05T10:41:26.924Z,33.43
2023-05-05T10:43:57.351Z,32.73
2023-05-05T10:46:26.731Z,33.98
2023-05-05T10:49:23.208Z,34.05
2023-05-05T10:51:50.059Z,33.20
2023-05-05T10:54:26.734Z,33.49
2023-05-05T10:56:53.986Z,33.75
2023-05-05T10:59:36.126Z,34.31
2023-05-05T11:02:23.469Z,33.54
2023-05-05T11:05:17.693Z,35.08
2023-05-05T11:07:46.082Z,34.84
2023-05-05T11:10:14.932Z,34.86
2023-05-05T11:12:54.308Z,33.87
2023-05-05T11:15:23.809Z,33.96
2023-05-05T11:17:50.678Z,34.63
2023-05-05T11:20:17.839Z,34.67
2023-05-05T11:23:02.901Z,34.03
2023-05-05T11:25:36.015Z,35.55
2023-05-05T11:28:14.542Z,34.62
2023-05-05T11:30:57.585Z,33.42
2023-05-05T11:33:26.805Z,33.73
2023-05-05T11:36:05.980Z,35.26
2023-05-05T11:38:36.235Z,34.98
2023-05-05T11:41:12.649Z,35.02
2023-05-05T11:43:40.230Z,34.38
2023-05-05T11:46:17.005Z,34.22
2023-05-05T11:48:51.648Z,33.52
2023-05-05T11:51:18.910Z,33.37
2023-05-05T11:53:47.775Z,33.51
2023-05-05T11:56:18.949Z,35.43
2023-05-05T11:58:46.689Z,34.82
2023-05-05T12:01:13.691Z,34.76
2023-05-05T12:03:41.073Z,35.64
2023-05-05T12:06:08.360Z,36.09
2023-05-05T12:08:39.154Z,35.64
2023-05-05T12:11:07.995Z,35.03
2023-05-05T12:13:35.032Z,35.18
2023-05-05T12:16:15.612Z,35.29
2023-05-05T12:18:42.752Z,36.36
2023-05-05T12:21:18.928Z,35.68
2023-05-05T12:23:45.868Z,37.13
2023-05-05T12:26:29.164Z,36.54
2023-05-05T12:28:57.612Z,36.89
2023-05-05T12:31:34.822Z,37.04
2023-05-05T12:34:02.253Z,36.40
2023-05-05T12:36:30.560Z,37.89
2023-05-05T12:38:58.136Z,37.52
2023-05-05T12:41:24.915Z,37.41
2023-05-05T12:43:56.103Z,36.73
2023-05-05T12:46:23.357Z,36.45
2023-05-05T12:49:02.090Z,37.00
2023-05-05T12:51:28.789Z,37.30
2023-05-05T12:54:09.916Z,37.96
2023-05-05T12:56:41.483Z,37.45
2023-05-05T12:59:10.010Z,37.57
2023-05-05T13:01:48.425Z,37.32
2023-05-05T13:04:15.190Z,38.51
2023-05-05T13:06:43.956Z,37.00
2023-05-05T13:09:43.111Z,38.05
2023-05-05T13:12:11.954Z,38.03
2023-05-05T13:14:40.904Z,38.47
2023-05-05T13:17:07.694Z,36.97
2023-05-05T13:19:41.986Z,37.46
2023-05-05T13:22:09.969Z,37.65
2023-05-05T13:24:49.639Z,37.94
2023-05-05T13:27:16.952Z,38.92
2023-05-05T13:29:43.873Z,38.10
2023-05-05T13:32:11.151Z,37.66
2023-05-05T13:34:39.126Z,37.03
2023-05-05T13:37:06.217Z,36.85
2023-05-05T13:39:32.768Z,38.31
2023-05-05T13:41:59.296Z,38.69
2023-05-05T13:44:25.903Z,38.97
2023-05-05T13:46:52.516Z,39.75
2023-05-05T13:49:20.034Z,39.59
2023-05-05T13:51:47.062Z,40.27
2023-05-05T13:54:13.756Z,40.18
2023-05-05T13:56:41.482Z,40.14
2023-05-05T13:59:08.037Z,39.72
2023-05-05T14:01:34.889Z,37.77
2023-05-05T14:04:04.477Z,38.55
2023-05-05T14:06:33.480Z,38.62
2023-05-05T14:09:00.050Z,37.94
2023-05-05T14:11:26.579Z,38.16
2023-05-05T14:13:53.148Z,39.02
2023-05-05T14:16:19.974Z,38.52
2023-05-05T14:18:46.620Z,38.71
2023-05-05T14:21:13.441Z,37.17
2023-05-05T14:23:40.031Z,37.65
2023-05-05T14:26:08.669Z,38.44
2023-05-05T14:28:35.214Z,37.45
2023-05-05T14:31:01.774Z,36.98
2023-05-05T14:33:28.301Z,36.98
2023-05-05T14:35:55.419Z,37.19
2023-05-05T14:38:21.998Z,36.95
2023-05-05T14:40:48.743Z,37.58
2023-05-05T14:43:15.287Z,38.05
2023-05-05T14:45:41.981Z,38.35
2023-05-05T14:48:08.572Z,38.31
2023-05-05T14:50:35.266Z,37.78
2023-05-05T14:53:01.934Z,37.62
2023-05-05T14:55:28.579Z,37.46
2023-05-05T14:57:55.189Z,37.30
2023-05-05T15:00:21.901Z,37.73
2023-05-05T15:02:48.643Z,38.09
2023-05-05T15:05:15.423Z,37.78
2023-05-05T15:07:41.981Z,38.32
2023-05-05T15:10:08.901Z,37.85
2023-05-05T15:12:35.721Z,38.39
2023-05-05T15:15:02.263Z,38.42
2023-05-05T15:17:30.910Z,37.45
2023-05-05T15:19:57.716Z,37.96
2023-05-05T15:22:24.252Z,37.78
2023-05-05T15:24:51.035Z,37.01
2023-05-05T15:27:18.181Z,37.22
2023-05-05T15:29:45.149Z,37.08
2023-05-05T15:32:11.874Z,37.09
2023-05-05T15:34:38.703Z,37.45
2023-05-05T15:37:05.380Z,37.66
2023-05-05T15:39:31.927Z,36.90
2023-05-05T15:42:00.237Z,36.89
2023-05-05T15:44:26.789Z,36.34
2023-05-05T15:46:53.363Z,36.55
2023-05-05T15:49:19.903Z,37.16
2023-05-05T15:51:47.620Z,37.39
2023-05-05T15:54:14.422Z,36.98
2023-05-05T15:56:40.950Z,37.02
2023-05-05T15:59:07.722Z,37.28
2023-05-05T16:01:36.101Z,37.55
2023-05-05T16:04:03.521Z,37.31
2023-05-05T16:06:30.169Z,37.13
2023-05-05T16:08:58.470Z,36.84
2023-05-05T16:11:26.049Z,37.33
2023-05-05T16:13:53.554Z,36.96
2023-05-05T16:16:21.066Z,37.14
2023-05-05T16:18:47.915Z,37.10
2023-05-05T16:21:15.049Z,37.20
2023-05-05T16:23:41.697Z,37.91
2023-05-05T16:26:08.434Z,38.55
2023-05-05T16:28:35.001Z,39.01
2023-05-05T16:31:02.215Z,39.25
2023-05-05T16:33:29.531Z,39.53
2023-05-05T16:35:56.277Z,39.57
2023-05-05T16:38:23.265Z,39.19
2023-05-05T16:40:53.414Z,39.27
2023-05-05T16:43:19.930Z,39.50
2023-05-05T16:45:46.746Z,39.18
2023-05-05T16:48:14.738Z,39.63
2023-05-05T16:50:41.388Z,39.74
2023-05-05T16:53:08.834Z,39.96
2023-05-05T16:55:35.836Z,38.90
2023-05-05T16:58:02.349Z,36.95
2023-05-05T17:00:29.475Z,36.34
2023-05-05T17:02:56.737Z,35.66
2023-05-05T17:05:23.399Z,34.89
2023-05-05T17:07:50.181Z,33.28
2023-05-05T17:10:16.739Z,34.04
2023-05-05T17:12:43.869Z,33.84
2023-05-05T17:15:10.836Z,33.63
2023-05-05T17:17:40.060Z,33.25
2023-05-05T17:20:08.602Z,33.95
2023-05-05T17:22:35.144Z,34.63
2023-05-05T17:25:01.684Z,34.31
2023-05-05T17:27:28.498Z,34.43
2023-05-05T17:29:55.135Z,34.20
2023-05-05T17:32:22.289Z,34.39
2023-05-05T17:39:30.962Z,34.69
2023-05-05T17:41:57.578Z,34.75
2023-05-05T17:44:24.122Z,35.14
2023-05-05T17:46:50.731Z,35.09
2023-05-05T17:49:17.642Z,35.71
2023-05-05T17:51:44.223Z,35.91
2023-05-05T17:54:10.827Z,36.16
2023-05-05T17:56:37.952Z,36.53
2023-05-05T17:59:05.516Z,36.57
2023-05-05T18:01:32.182Z,36.81
2023-05-05T18:03:59.198Z,36.97
2023-05-05T18:06:25.992Z,37.15
2023-05-05T18:08:52.825Z,37.09
2023-05-05T18:11:21.169Z,36.81
2023-05-05T18:13:47.703Z,35.61
2023-05-05T18:16:14.652Z,35.17
2023-05-05T18:18:41.736Z,35.09
2023-05-05T18:21:11.936Z,35.14
2023-05-05T18:23:40.290Z,35.16
2023-05-05T18:26:07.215Z,33.84
2023-05-05T18:28:34.043Z,34.53
2023-05-05T18:31:01.036Z,35.10
2023-05-05T18:33:27.591Z,34.71
2023-05-05T18:35:55.163Z,33.98
2023-05-05T18:38:22.436Z,33.69
2023-05-05T18:40:49.269Z,34.01
2023-05-05T18:43:16.394Z,33.67
2023-05-05T18:45:43.010Z,34.03
2023-05-05T18:48:09.795Z,34.50
2023-05-05T18:50:36.715Z,34.00
2023-05-05T18:53:04.034Z,32.80
2023-05-05T18:55:30.575Z,32.62
2023-05-05T18:57:57.780Z,33.51
2023-05-05T19:00:24.495Z,32.57
2023-05-05T19:02:52.409Z,32.63
2023-05-05T19:05:19.647Z,31.90
2023-05-05T19:07:49.561Z,31.27
2023-05-05T19:10:16.286Z,32.00
2023-05-05T19:12:42.850Z,31.88
2023-05-05T19:15:09.841Z,31.88
2023-05-05T19:17:36.631Z,31.26
2023-05-05T19:20:03.799Z,31.56
2023-05-05T19:22:31.027Z,31.78
2023-05-05T19:24:57.731Z,32.04
2023-05-05T19:27:25.228Z,31.75
2023-05-05T19:29:52.682Z,32.12
2023-05-05T19:32:21.044Z,32.53
2023-05-05T19:34:48.676Z,31.94
2023-05-05T19:37:15.740Z,32.60
2023-05-05T19:39:44.471Z,32.71
2023-05-05T19:42:11.545Z,32.65
2023-05-05T19:44:38.066Z,31.50
2023-05-05T19:47:06.062Z,31.68
2023-05-05T19:49:33.341Z,31.65
2023-05-05T19:52:00.358Z,32.11
2023-05-05T19:54:27.878Z,33.03
2023-05-05T19:56:55.412Z,32.46
2023-05-05T19:59:23.883Z,33.28
2023-05-05T20:01:50.606Z,33.40
2023-05-05T20:04:17.688Z,32.82
2023-05-05T20:06:44.316Z,33.04
2023-05-05T20:09:11.296Z,32.74
2023-05-05T20:11:38.183Z,33.30
2023-05-05T20:14:05.247Z,33.57
2023-05-05T20:16:32.349Z,33.95
2023-05-05T20:18:59.055Z,33.85
2023-05-05T20:21:26.109Z,33.97
2023-05-05T20:23:54.485Z,33.60
2023-05-05T20:26:21.997Z,34.09
2023-05-05T20:28:48.761Z,33.91
2023-05-05T20:31:17.272Z,33.63
2023-05-05T20:33:45.031Z,33.36
2023-05-05T20:36:11.670Z,33.61
2023-05-05T20:38:38.688Z,32.87
2023-05-05T20:41:06.195Z,33.50
2023-05-05T20:43:32.818Z,33.30
2023-05-05T20:45:59.473Z,33.18
2023-05-05T20:48:25.987Z,33.75
2023-05-05T20:50:52.528Z,33.70
2023-05-05T20:53:20.832Z,33.81
2023-05-05T20:55:47.378Z,33.75
2023-05-05T20:58:13.936Z,33.61
2023-05-05T21:00:40.651Z,33.94
2023-05-05T21:03:07.999Z,33.75
2023-05-05T21:05:35.868Z,33.60
2023-05-05T21:08:02.569Z,34.06
2023-05-05T21:10:29.241Z,33.89
2023-05-05T21:12:56.079Z,33.44
2023-05-05T21:15:22.854Z,33.80
2023-05-05T21:17:49.446Z,33.60
2023-05-05T21:20:16.904Z,33.94
2023-05-05T21:22:43.754Z,33.71
2023-05-05T21:25:16.312Z,33.25
2023-05-05T21:27:42.948Z,33.81
2023-05-05T21:30:11.347Z,34.14
2023-05-05T21:32:39.330Z,34.03
2023-05-05T21:35:08.540Z,34.17
2023-05-05T21:37:37.647Z,34.59
2023-05-05T21:40:05.827Z,35.16
2023-05-05T21:42:32.433Z,35.32
2023-05-05T21:44:58.984Z,35.63
2023-05-05T21:47:27.173Z,35.67
2023-05-05T21:49:53.752Z,35.83
2023-05-05T21:52:20.329Z,36.07
2023-05-05T21:54:47.168Z,35.97
2023-05-05T21:57:13.718Z,35.87
2023-05-05T21:59:41.162Z,36.02
2023-05-05T22:02:07.822Z,36.13
2023-05-05T22:04:34.403Z,36.25
2023-05-05T22:07:19.481Z,36.39
2023-05-05T22:10:04.692Z,36.36
2023-05-05T22:12:31.761Z,36.34
2023-05-05T22:14:58.336Z,36.37
2023-05-05T22:17:25.032Z,36.43
2023-05-05T22:19:51.559Z,36.54
2023-05-05T22:22:21.023Z,36.58
2023-05-05T22:24:47.544Z,36.53
2023-05-05T22:27:14.111Z,36.51
2023-05-05T22:29:40.811Z,36.46
2023-05-05T22:32:07.512Z,36.53
2023-05-05T22:34:35.577Z,36.56
2023-05-05T22:37:02.099Z,36.66
2023-05-05T22:39:28.971Z,36.63
2023-05-05T22:41:55.963Z,36.63
2023-05-05T22:44:22.507Z,36.64
2023-05-05T22:46:49.885Z,36.61
2023-05-05T22:49:16.637Z,36.65
2023-05-05T22:51:43.264Z,36.50
2023-05-05T22:54:09.908Z,36.54
2023-05-05T22:56:37.451Z,36.55
2023-05-05T22:59:05.395Z,36.59
2023-05-05T23:01:35.042Z,36.57
2023-05-05T23:04:01.913Z,36.64
2023-05-05T23:06:28.914Z,36.56
2023-05-05T23:08:55.560Z,36.00
2023-05-05T23:11:22.209Z,34.92
2023-05-05T23:13:48.743Z,34.10
2023-05-05T23:16:15.659Z,33.36
2023-05-05T23:18:42.232Z,33.71
2023-05-05T23:21:10.092Z,33.63
2023-05-05T23:23:36.664Z,33.52
2023-05-05T23:26:03.259Z,33.74
2023-05-05T23:28:30.889Z,34.80
2023-05-05T23:30:57.475Z,34.80
2023-05-05T23:33:24.161Z,34.72
2023-05-05T23:35:50.881Z,34.20
2023-05-05T23:38:17.471Z,33.56
2023-05-05T23:40:44.015Z,33.08
2023-05-05T23:43:11.949Z,32.65
2023-05-05T23:45:40.446Z,32.86
2023-05-05T23:48:07.149Z,33.27
2023-05-05T23:50:34.595Z,33.91
2023-05-05T23:53:01.189Z,34.26
2023-05-05T23:55:27.781Z,34.53
2023-05-05T23:57:54.380Z,34.54
